Time;durP1;ratioP1;P1;durP2;ratioP2;P2;SDS_P1;SDS_P2;PMS_P1;PMS_P2;Temp;Humidity;BMP_temperature;BMP_pressure;BME280_temperature;BME280_humidity;BME280_pressure;Samples;Min_cycle;Max_cycle;Signal;HPM_P1;HPM_P2
2022/04/01 00:01:41;;;;;;;;;9.20;9.20;;;;;16.35;58.53;97135.63;5005985;28;9644;-71
2022/04/01 00:04:10;;;;;;;;;9.00;7.20;;;;;16.37;58.32;97142.50;5005395;28;8969;-72
2022/04/01 00:06:38;;;;;;;;;9.40;8.60;;;;;16.42;58.24;97133.47;4989182;28;9655;-74
2022/04/01 00:09:07;;;;;;;;;13.40;11.20;;;;;16.42;58.65;97125.59;5005455;28;8838;-71
2022/04/01 00:11:37;;;;;;;;;11.20;9.40;;;;;16.42;58.67;97129.06;4989289;28;8873;-71
2022/04/01 00:14:06;;;;;;;;;10.20;9.80;;;;;16.45;58.58;97130.66;5004480;28;8870;-70
2022/04/01 00:16:34;;;;;;;;;8.60;7.20;;;;;16.39;58.71;97121.38;5005621;28;8862;-72
2022/04/01 00:19:03;;;;;;;;;11.20;8.00;;;;;16.37;58.37;97118.00;5026514;28;8958;-72
2022/04/01 00:21:32;;;;;;;;;8.20;7.00;;;;;16.36;58.79;97118.94;5047780;28;8907;-72
2022/04/01 00:24:01;;;;;;;;;8.60;8.00;;;;;16.29;58.86;97105.31;5047353;28;8977;-75
2022/04/01 00:26:29;;;;;;;;;8.20;7.80;;;;;16.24;58.88;97104.78;5047760;28;8996;-72
2022/04/01 00:29:14;;;;;;;;;7.80;6.20;;;;;16.26;58.82;97096.78;5045406;28;8852;-74
2022/04/01 00:31:43;;;;;;;;;6.20;5.40;;;;;16.22;58.77;97088.25;5029812;28;8844;-71
2022/04/01 00:34:19;;;;;;;;;7.80;7.00;;;;;16.24;59.00;97088.13;5042828;28;8839;-71
2022/04/01 00:36:50;;;;;;;;;6.20;5.80;;;;;16.18;59.16;97094.63;5026486;28;8902;-71
2022/04/01 00:39:20;;;;;;;;;12.80;6.00;;;;;16.20;59.33;97105.03;4993030;28;9601;-70
2022/04/01 00:41:50;;;;;;;;;8.20;8.20;;;;;16.23;59.00;97097.81;5026830;28;8938;-73
2022/04/01 00:44:23;;;;;;;;;8.60;7.80;;;;;16.20;59.14;97103.28;5009825;28;8832;-70
2022/04/01 00:46:59;;;;;;;;;6.80;6.80;;;;;16.24;59.02;97089.00;5040491;28;8863;-72
2022/04/01 00:49:29;;;;;;;;;7.60;7.60;;;;;16.19;59.41;97096.31;5026258;28;8872;-72
2022/04/01 00:52:00;;;;;;;;;7.40;7.20;;;;;16.17;59.55;97091.16;5027727;28;8961;-71
2022/04/01 00:54:29;;;;;;;;;7.00;6.20;;;;;16.16;59.53;97088.63;5027389;28;8824;-73
2022/04/01 00:56:59;;;;;;;;;8.80;7.60;;;;;16.14;59.70;97091.38;5027712;28;8987;-71
2022/04/01 00:59:29;;;;;;;;;6.60;6.40;;;;;16.11;60.03;97098.59;5027298;28;8859;-72
2022/04/01 01:01:58;;;;;;;;;8.40;7.40;;;;;16.14;60.03;97093.13;5030195;28;8851;-70
2022/04/01 01:04:27;;;;;;;;;12.20;9.40;;;;;16.10;60.07;97086.38;5047627;28;8934;-73
2022/04/01 01:06:57;;;;;;;;;9.20;9.20;;;;;16.06;60.28;97087.50;5047387;28;8877;-72
2022/04/01 01:09:27;;;;;;;;;9.20;7.20;;;;;16.09;59.96;97074.19;5047303;28;8991;-72
2022/04/01 01:11:56;;;;;;;;;8.00;6.80;;;;;16.08;60.65;97070.69;5028320;28;8876;-75
2022/04/01 01:14:28;;;;;;;;;11.00;9.20;;;;;16.08;60.24;97075.94;5045411;28;8840;-72
2022/04/01 01:17:00;;;;;;;;;3.00;2.00;;;;;16.12;60.12;97081.88;5029872;28;8864;-74
2022/04/01 01:19:29;;;;;;;;;7.40;5.80;;;;;16.14;60.13;97075.59;5050196;28;8848;-71
2022/04/01 01:21:59;;;;;;;;;10.00;8.60;;;;;16.16;60.37;97071.06;5046233;28;9671;-72
2022/04/01 01:24:31;;;;;;;;;6.60;6.60;;;;;16.18;60.15;97065.69;5030155;28;8906;-72
2022/04/01 01:27:01;;;;;;;;;10.00;9.80;;;;;16.24;60.10;97059.22;5044094;28;8914;-72
2022/04/01 01:29:32;;;;;;;;;8.20;8.20;;;;;16.24;60.06;97060.06;5049417;28;8861;-71
2022/04/01 01:32:04;;;;;;;;;9.80;7.80;;;;;16.37;59.15;97050.44;5027961;28;9715;-71
2022/04/01 01:34:33;;;;;;;;;5.40;5.20;;;;;16.38;59.14;97060.00;4995643;28;9009;-76
2022/04/01 01:37:03;;;;;;;;;6.80;5.40;;;;;16.42;58.86;97052.78;5004916;28;8879;-71
2022/04/01 01:39:33;;;;;;;;;7.00;7.00;;;;;16.47;58.65;97053.34;4976097;28;8880;-71
2022/04/01 01:42:01;;;;;;;;;6.00;6.00;;;;;16.55;58.45;97053.66;5008291;28;8844;-74
2022/04/01 01:44:30;;;;;;;;;6.60;6.00;;;;;16.58;58.47;97047.38;5013861;28;8833;-73
2022/04/01 01:46:59;;;;;;;;;7.40;6.20;;;;;16.57;58.10;97057.03;5028112;28;8870;-72
2022/04/01 01:49:29;;;;;;;;;5.60;5.60;;;;;16.63;58.09;97053.16;5028131;28;8868;-71
2022/04/01 01:54:50;;;;;;;;;4.00;4.00;;;;;16.72;57.59;97049.94;5028015;28;8842;-72
2022/04/01 01:57:22;;;;;;;;;5.00;5.00;;;;;16.82;57.14;97044.06;5044709;28;8932;-72
2022/04/01 01:59:52;;;;;;;;;5.60;5.60;;;;;16.84;56.91;97037.81;5027805;28;8845;-72
2022/04/01 02:02:21;;;;;;;;;5.60;4.00;;;;;16.95;56.55;97044.97;5030800;28;8860;-73
2022/04/01 02:04:50;;;;;;;;;5.00;5.00;;;;;16.98;56.37;97039.50;5039441;28;8847;-74
2022/04/01 02:07:20;;;;;;;;;5.00;4.00;;;;;17.07;56.10;97033.63;5029930;28;8922;-70
2022/04/01 02:09:50;;;;;;;;;6.80;5.00;;;;;17.12;55.81;97042.03;5029876;28;9604;-74
2022/04/01 02:12:19;;;;;;;;;6.00;6.00;;;;;17.10;55.55;97037.84;5029107;28;8843;-72
2022/04/01 02:14:47;;;;;;;;;7.80;7.00;;;;;17.14;55.79;97040.19;4978910;28;8876;-71
2022/04/01 02:17:16;;;;;;;;;7.60;5.20;;;;;17.14;55.43;97039.31;5042123;28;8907;-72
2022/04/01 02:19:45;;;;;;;;;4.80;4.60;;;;;17.14;55.41;97034.03;5048711;28;8841;-72
2022/04/01 02:22:15;;;;;;;;;7.20;6.00;;;;;17.11;55.41;97040.38;5048670;28;8837;-71
2022/04/01 02:24:44;;;;;;;;;7.40;6.40;;;;;17.12;55.41;97039.41;5031760;28;9602;-72
2022/04/01 02:27:15;;;;;;;;;6.60;6.20;;;;;17.06;55.91;97036.38;5047235;28;8956;-71
2022/04/01 02:29:44;;;;;;;;;4.20;3.00;;;;;17.08;55.80;97035.31;5048572;28;8887;-73
2022/04/01 02:32:39;;;;;;;;;8.00;6.00;;;;;17.08;55.74;97035.31;5049594;28;9616;-72
2022/04/01 02:35:34;;;;;;;;;5.80;4.00;;;;;17.05;56.04;97032.91;4987559;28;8966;-72
2022/04/01 02:38:03;;;;;;;;;10.40;8.40;;;;;17.02;56.03;97034.88;4971446;28;8862;-71
2022/04/01 02:40:32;;;;;;;;;7.60;7.60;;;;;17.01;56.52;97039.28;4955235;28;9087;-74
2022/04/01 02:43:02;;;;;;;;;6.20;5.80;;;;;17.01;56.13;97030.56;4970529;28;8915;-72
2022/04/01 02:45:33;;;;;;;;;1.80;1.00;;;;;16.99;56.60;97024.56;4987604;28;8834;-73
2022/04/01 02:48:05;;;;;;;;;6.40;5.40;;;;;16.94;56.44;97027.50;4987626;28;8858;-72
2022/04/01 02:50:50;;;;;;;;;5.60;5.60;;;;;16.97;56.59;97021.19;4971887;28;8865;-74
2022/04/01 02:53:18;;;;;;;;;5.80;5.80;;;;;16.93;56.73;97016.09;4971433;28;8858;-72
2022/04/01 02:55:47;;;;;;;;;6.00;6.00;;;;;16.90;56.69;97021.59;4971195;28;8953;-74
2022/04/01 02:58:18;;;;;;;;;7.20;7.20;;;;;16.81;57.24;97024.81;4919418;28;8907;-73
2022/04/01 03:00:48;;;;;;;;;8.00;6.80;;;;;16.77;57.31;97020.69;4951740;28;8898;-73
2022/04/01 03:03:16;;;;;;;;;6.80;6.80;;;;;16.76;57.65;97021.63;4951756;28;8883;-75
2022/04/01 03:05:45;;;;;;;;;9.20;8.00;;;;;16.62;58.32;97014.66;4928814;29;8994;-73
2022/04/01 03:08:14;;;;;;;;;7.00;5.00;;;;;16.58;58.14;97026.34;4929252;29;9013;-74
2022/04/01 03:10:44;;;;;;;;;7.80;6.80;;;;;16.49;58.73;97038.28;4936825;28;8865;-75
2022/04/01 03:13:12;;;;;;;;;7.20;5.40;;;;;16.41;59.00;97029.19;4944049;28;8871;-76
2022/04/01 03:16:02;;;;;;;;;6.00;5.80;;;;;16.27;59.60;97028.28;5004561;28;8872;-73
2022/04/01 03:18:41;;;;;;;;;7.60;7.40;;;;;16.24;59.79;97027.66;5025991;28;8879;-72
2022/04/01 03:21:11;;;;;;;;;8.00;8.00;;;;;16.21;60.14;97033.13;5022609;28;8932;-72
2022/04/01 03:23:44;;;;;;;;;12.40;12.40;;;;;16.18;60.12;97031.50;5022798;28;8838;-71
2022/04/01 03:26:17;;;;;;;;;7.80;7.80;;;;;16.14;60.28;97037.91;5023438;28;8955;-72
2022/04/01 03:28:59;;;;;;;;;5.00;5.00;;;;;16.11;60.34;97028.44;4992252;28;8913;-70
2022/04/01 03:31:31;;;;;;;;;6.80;6.80;;;;;16.15;60.37;97023.84;5022201;28;8862;-75
2022/04/01 03:34:03;;;;;;;;;6.20;6.00;;;;;16.21;60.02;97022.59;5026454;28;8851;-71
2022/04/01 03:36:33;;;;;;;;;5.60;4.40;;;;;16.21;60.06;97028.69;4987717;28;8991;-73
2022/04/01 03:39:03;;;;;;;;;7.80;7.40;;;;;16.21;59.88;97026.06;5063893;28;8873;-73
2022/04/01 03:41:39;;;;;;;;;6.00;6.00;;;;;16.23;59.54;97028.59;5030734;28;8861;-74
2022/04/01 03:44:09;;;;;;;;;10.80;5.20;;;;;16.25;59.64;97019.66;5045704;28;9048;-71
2022/04/01 03:46:53;;;;;;;;;6.20;5.00;;;;;16.24;59.69;97025.03;5062556;28;8826;-77
2022/04/01 03:49:23;;;;;;;;;12.60;11.20;;;;;16.26;59.85;97018.75;5044346;28;8846;-71
2022/04/01 03:51:56;;;;;;;;;7.20;6.40;;;;;16.32;59.30;97012.25;5062270;28;8850;-71
2022/04/01 03:54:27;;;;;;;;;6.20;5.80;;;;;16.30;59.27;97009.69;5062093;28;9662;-72
2022/04/01 03:57:05;;;;;;;;;5.20;5.20;;;;;16.29;59.37;97015.06;5045562;28;8850;-72
2022/04/01 03:59:57;;;;;;;;;4.00;4.00;;;;;16.27;59.13;97017.78;5045692;28;8866;-72
2022/04/01 04:02:44;;;;;;;;;6.80;6.00;;;;;16.19;59.39;97027.97;5045556;28;8866;-75
2022/04/01 04:05:19;;;;;;;;;7.40;6.00;;;;;16.14;59.64;97016.88;4996981;28;8850;-72
2022/04/01 04:07:50;;;;;;;;;10.80;10.80;;;;;16.13;59.87;97017.84;5062121;28;8857;-72
2022/04/01 04:10:27;;;;;;;;;6.40;6.00;;;;;16.17;59.67;97024.59;5062491;28;8873;-72
2022/04/01 04:13:06;;;;;;;;;12.20;12.20;;;;;16.18;59.62;97024.50;5045264;28;8838;-71
2022/04/01 04:15:42;;;;;;;;;5.60;4.40;;;;;16.20;59.68;97027.03;5071798;28;8861;-72
2022/04/01 04:18:19;;;;;;;;;8.40;7.80;;;;;16.16;59.90;97022.88;5046679;28;8873;-71
2022/04/01 04:20:59;;;;;;;;;5.00;4.60;;;;;16.16;59.71;97030.78;5043470;28;8893;-71
2022/04/01 04:23:36;;;;;;;;;6.80;5.60;;;;;16.21;59.86;97026.06;4995410;28;8840;-74
2022/04/01 04:26:11;;;;;;;;;7.00;5.80;;;;;16.22;59.68;97026.91;5043591;28;8860;-73
2022/04/01 04:28:50;;;;;;;;;9.00;6.20;;;;;16.22;59.97;97030.41;5010100;28;8878;-73
2022/04/01 04:31:43;;;;;;;;;9.40;6.40;;;;;16.20;59.64;97040.19;5026570;28;8863;-74
2022/04/01 04:34:19;;;;;;;;;7.80;7.80;;;;;16.23;59.84;97042.59;4996649;28;8855;-74
2022/04/01 04:36:52;;;;;;;;;6.20;5.80;;;;;16.20;59.79;97037.53;5046032;28;8907;-74
2022/04/01 04:39:31;;;;;;;;;6.40;6.40;;;;;16.18;59.88;97032.38;5046432;28;9670;-75
2022/04/01 04:42:02;;;;;;;;;9.00;7.80;;;;;16.17;60.05;97035.94;5045576;28;8869;-73
2022/04/01 04:44:32;;;;;;;;;7.00;7.00;;;;;16.18;60.20;97047.28;5046282;28;8856;-75
2022/04/01 04:47:05;;;;;;;;;9.40;8.00;;;;;16.18;59.91;97056.03;5045346;28;8864;-75
2022/04/01 04:49:37;;;;;;;;;13.40;11.60;;;;;16.18;60.40;97056.03;4991233;28;8854;-72
2022/04/01 04:52:07;;;;;;;;;7.00;6.60;;;;;16.18;60.12;97056.03;5009410;28;8858;-74
2022/04/01 04:54:44;;;;;;;;;7.60;7.40;;;;;16.13;60.35;97052.00;5007877;28;8840;-73
2022/04/01 04:57:36;;;;;;;;;8.20;7.00;;;;;16.14;60.35;97053.69;5029198;28;8832;-74
2022/04/01 05:00:07;;;;;;;;;11.00;8.60;;;;;16.16;60.35;97054.44;5013002;28;8877;-76
2022/04/01 05:03:16;;;;;;;;;10.80;9.60;;;;;16.27;59.98;97067.75;5028394;28;8837;-72
2022/04/01 05:05:49;;;;;;;;;9.00;9.00;;;;;16.29;59.90;97051.88;5028560;28;9657;-73
2022/04/01 05:08:41;;;;;;;;;12.00;11.20;;;;;16.35;59.63;97043.59;5012010;28;8919;-72
2022/04/01 05:11:42;;;;;;;;;11.80;10.60;;;;;16.49;59.00;97050.59;5011015;28;8867;-73
2022/04/01 05:14:27;;;;;;;;;11.40;10.40;;;;;16.56;58.88;97041.38;5015322;28;8848;-70
2022/04/01 05:17:01;;;;;;;;;15.00;11.60;;;;;16.58;58.39;97028.97;5028495;28;8856;-74
2022/04/01 05:19:36;;;;;;;;;8.80;8.60;;;;;16.67;58.20;97023.09;4990173;28;8874;-75
2022/04/01 05:22:09;;;;;;;;;7.00;7.00;;;;;16.70;58.15;97028.13;4997039;28;8907;-75
2022/04/01 05:24:53;;;;;;;;;11.60;8.60;;;;;16.67;58.17;97025.72;5004516;28;8923;-73
2022/04/01 05:27:25;;;;;;;;;11.60;10.40;;;;;16.72;58.23;97018.34;5045405;28;8853;-73
2022/04/01 05:30:12;;;;;;;;;11.40;11.40;;;;;16.62;58.81;97013.81;5050326;28;8884;-73
2022/04/01 05:32:59;;;;;;;;;11.60;11.60;;;;;16.59;58.84;97012.22;5049290;28;8864;-76
2022/04/01 05:35:30;;;;;;;;;13.00;11.00;;;;;16.56;59.08;97009.81;5032581;28;8829;-74
2022/04/01 05:38:01;;;;;;;;;10.20;9.20;;;;;16.54;59.28;97024.81;5006949;28;8965;-74
2022/04/01 05:40:31;;;;;;;;;12.80;10.80;;;;;16.62;59.14;97030.44;4991578;28;8856;-73
2022/04/01 05:43:06;;;;;;;;;12.60;10.60;;;;;16.58;59.00;97026.34;4975590;28;8856;-74
2022/04/01 05:45:49;;;;;;;;;11.20;9.00;;;;;16.67;58.81;97025.72;5006870;28;8962;-72
2022/04/01 05:48:20;;;;;;;;;12.20;11.00;;;;;16.76;58.30;97029.53;4991785;28;8883;-74
2022/04/01 05:50:51;;;;;;;;;13.60;11.80;;;;;16.80;57.93;97025.75;4974925;28;8865;-72
2022/04/01 05:53:24;;;;;;;;;17.80;11.80;;;;;16.80;58.04;97028.38;4992000;28;8852;-74
2022/04/01 05:55:55;;;;;;;;;17.20;14.20;;;;;16.89;57.78;97038.31;4943895;28;8856;-72
2022/04/01 05:58:24;;;;;;;;;10.20;8.80;;;;;16.93;57.48;97031.91;5007691;28;9632;-73
2022/04/01 06:01:19;;;;;;;;;11.80;9.40;;;;;16.99;56.92;97042.97;4972531;28;8912;-72
2022/04/01 06:04:30;;;;;;;;;12.20;10.80;;;;;17.05;57.38;97034.66;4966785;28;8953;-75
2022/04/01 06:07:09;;;;;;;;;15.60;13.60;;;;;16.97;57.50;97036.97;4912682;29;8899;-73
2022/04/01 06:09:52;;;;;;;;;15.00;9.60;;;;;17.08;56.97;97034.47;4913178;29;9626;-74
2022/04/01 06:12:49;;;;;;;;;13.20;10.20;;;;;17.09;56.93;97037.00;4899961;29;9018;-75
2022/04/01 06:15:46;;;;;;;;;13.60;12.20;;;;;17.16;56.53;97021.63;4947932;28;8849;-73
2022/04/01 06:18:54;;;;;;;;;12.80;12.80;;;;;17.29;56.05;97033.00;4938255;28;8881;-73
2022/04/01 06:21:26;;;;;;;;;12.80;11.80;;;;;17.31;55.81;97022.38;4913671;28;9027;-72
2022/04/01 06:24:09;;;;;;;;;17.60;16.00;;;;;17.44;55.33;97022.38;4915892;28;8873;-73
2022/04/01 06:26:52;;;;;;;;;15.60;15.20;;;;;17.41;55.50;97031.34;4900197;28;8829;-72
2022/04/01 06:29:37;;;;;;;;;15.00;13.00;;;;;17.53;55.00;97017.31;4931640;28;8978;-76
2022/04/01 06:32:13;;;;;;;;;18.40;14.80;;;;;17.65;55.16;97014.75;4901028;28;8991;-74
2022/04/01 06:34:55;;;;;;;;;13.20;12.00;;;;;17.64;54.75;97018.38;4912392;28;8867;-72
2022/04/01 06:37:48;;;;;;;;;13.60;13.00;;;;;17.60;54.67;97017.72;4921049;28;8839;-72
2022/04/01 06:40:22;;;;;;;;;17.20;15.20;;;;;17.71;54.59;97024.88;4946549;28;8895;-75
2022/04/01 06:42:54;;;;;;;;;13.80;12.20;;;;;17.65;54.11;97018.22;4950983;28;8876;-75
2022/04/01 06:45:45;;;;;;;;;16.80;14.40;;;;;17.68;54.69;97035.66;5003126;28;8888;-75
2022/04/01 06:48:32;;;;;;;;;21.80;14.80;;;;;17.74;54.51;97041.31;5006047;28;8858;-71
2022/04/01 06:51:19;;;;;;;;;18.40;16.20;;;;;17.73;54.66;97038.78;5019959;28;8836;-73
2022/04/01 06:54:07;;;;;;;;;19.20;17.40;;;;;17.72;54.68;97045.84;5024297;28;8836;-70
2022/04/01 06:57:11;;;;;;;;;16.20;14.00;;;;;17.64;55.48;97055.25;4993328;28;8868;-72
2022/04/01 07:00:08;;;;;;;;;18.00;16.40;;;;;17.59;55.60;97050.28;4928546;29;8865;-74
2022/04/01 07:02:37;;;;;;;;;18.20;16.80;;;;;17.60;55.24;97049.34;4936932;28;8884;-72
2022/04/01 07:05:06;;;;;;;;;13.80;11.80;;;;;17.73;54.79;97047.56;4945337;28;8880;-70
2022/04/01 07:07:35;;;;;;;;;17.80;17.00;;;;;17.77;54.87;97055.22;4946913;28;8850;-74
2022/04/01 07:10:04;;;;;;;;;18.80;15.00;;;;;17.83;54.64;97055.66;4942880;29;8861;-72
2022/04/01 07:12:33;;;;;;;;;12.00;9.40;;;;;17.84;54.33;97051.22;4938197;28;8839;-71
2022/04/01 07:15:01;;;;;;;;;14.80;12.60;;;;;17.87;54.30;97066.88;4899600;28;9724;-70
2022/04/01 07:17:36;;;;;;;;;17.20;15.60;;;;;17.90;54.57;97078.03;4934827;28;8862;-75
2022/04/01 07:20:12;;;;;;;;;17.00;15.40;;;;;17.95;54.56;97077.72;4946949;28;9006;-73
2022/04/01 07:22:51;;;;;;;;;20.80;17.80;;;;;18.03;54.50;97083.28;4928256;28;8856;-71
2022/04/01 07:25:22;;;;;;;;;20.60;18.60;;;;;18.11;53.75;97094.16;4928361;29;8845;-73
2022/04/01 07:27:51;;;;;;;;;21.20;19.20;;;;;18.18;53.93;97086.63;4928523;29;8865;-72
2022/04/01 07:30:20;;;;;;;;;19.20;18.00;;;;;18.30;53.45;97079.66;4931393;28;8851;-72
2022/04/01 07:32:59;;;;;;;;;18.80;17.60;;;;;18.28;53.82;97069.19;4983350;28;8888;-74
2022/04/01 07:35:29;;;;;;;;;15.40;13.80;;;;;18.28;53.84;97074.47;4950711;28;8890;-74
2022/04/01 07:37:58;;;;;;;;;12.40;11.40;;;;;18.36;53.14;97075.72;5020220;28;8890;-74
2022/04/01 07:40:26;;;;;;;;;16.20;14.00;;;;;18.41;53.01;97079.72;5047950;28;8907;-74
2022/04/01 07:42:55;;;;;;;;;14.00;12.80;;;;;18.52;53.00;97084.22;5048317;28;8861;-71
2022/04/01 07:45:24;;;;;;;;;14.00;11.80;;;;;18.59;52.62;97080.19;5046936;28;8879;-72
2022/04/01 07:47:54;;;;;;;;;14.40;12.60;;;;;18.68;52.28;97079.50;5043386;28;8969;-72
2022/04/01 07:50:23;;;;;;;;;15.60;14.00;;;;;18.79;52.24;97075.22;5017542;28;8897;-74
2022/04/01 07:52:52;;;;;;;;;9.60;8.20;;;;;18.82;51.98;97077.69;5045538;28;8930;-72
2022/04/01 07:55:22;;;;;;;;;18.80;14.80;;;;;18.98;51.54;97080.88;5042073;28;8855;-73
2022/04/01 07:57:53;;;;;;;;;10.00;9.40;;;;;19.12;50.44;97084.28;5012096;28;8873;-74
2022/04/01 08:00:42;;;;;;;;;14.00;13.00;;;;;19.27;50.38;97078.69;5045406;28;8869;-72
2022/04/01 08:03:12;;;;;;;;;15.00;13.80;;;;;19.48;49.96;97086.78;5033133;28;8960;-75
2022/04/01 08:05:42;;;;;;;;;14.20;10.80;;;;;19.71;49.27;97078.03;5043464;28;8864;-72
2022/04/01 08:08:10;;;;;;;;;14.00;11.20;;;;;19.82;49.22;97083.38;5047039;28;8873;-72
2022/04/01 08:10:39;;;;;;;;;14.40;12.00;;;;;19.85;48.91;97085.78;5028339;28;8857;-74
2022/04/01 08:13:09;;;;;;;;;20.40;18.80;;;;;19.98;48.83;97089.16;5041174;28;8925;-75
2022/04/01 08:15:38;;;;;;;;;17.40;14.40;;;;;20.13;48.73;97096.81;5047468;28;9042;-71
2022/04/01 08:18:07;;;;;;;;;10.60;9.00;;;;;20.09;48.17;97087.47;5047506;28;8885;-75
2022/04/01 08:20:37;;;;;;;;;16.60;14.00;;;;;20.12;48.18;97085.41;5047220;28;8874;-75
2022/04/01 08:23:06;;;;;;;;;18.00;16.00;;;;;20.19;48.29;97078.69;5047348;28;8958;-76
2022/04/01 08:25:35;;;;;;;;;25.60;23.60;;;;;20.23;48.85;97084.56;5051686;28;8899;-73
2022/04/01 08:28:06;;;;;;;;;16.20;15.00;;;;;19.70;49.12;97077.22;5049007;28;8837;-71
2022/04/01 08:30:35;;;;;;;;;18.60;17.40;;;;;19.75;49.11;97072.41;5031756;28;8849;-74
2022/04/01 08:33:04;;;;;;;;;19.00;16.80;;;;;19.64;48.63;97075.88;5048303;28;8837;-74
2022/04/01 08:35:33;;;;;;;;;10.60;10.00;;;;;19.75;48.83;97072.41;5049879;28;8852;-76
2022/04/01 08:38:03;;;;;;;;;16.40;13.40;;;;;19.68;48.66;97087.06;5048901;28;8881;-73
2022/04/01 08:40:32;;;;;;;;;15.00;13.60;;;;;19.95;48.20;97088.56;5035479;28;8859;-73
2022/04/01 08:43:01;;;;;;;;;15.20;14.00;;;;;19.88;48.53;97085.53;5031058;28;8958;-73
2022/04/01 08:45:33;;;;;;;;;19.60;16.20;;;;;20.03;48.56;97091.44;5029502;28;9009;-74
2022/04/01 08:48:04;;;;;;;;;13.80;12.40;;;;;20.25;48.05;97101.16;5039590;28;8857;-70
2022/04/01 08:50:32;;;;;;;;;14.40;11.00;;;;;19.95;48.01;97113.19;5035441;28;9135;-70
2022/04/01 08:53:03;;;;;;;;;16.40;13.80;;;;;19.67;49.18;97119.75;5030775;28;8852;-68
2022/04/01 08:55:32;;;;;;;;;15.60;14.40;;;;;19.88;49.30;97134.94;5042001;28;8861;-68
2022/04/01 08:58:00;;;;;;;;;12.40;11.20;;;;;20.08;49.05;97136.91;5030988;28;8971;-70
2022/04/01 09:00:36;;;;;;;;;21.40;18.00;;;;;19.85;49.37;97134.22;5045829;28;8917;-69
2022/04/01 09:03:08;;;;;;;;;12.40;11.20;;;;;19.71;50.96;97109.78;5014622;28;8885;-68
2022/04/01 09:05:38;;;;;;;;;9.40;8.40;;;;;19.92;49.62;97094.91;5047190;28;9715;-71
2022/04/01 09:08:10;;;;;;;;;9.80;8.40;;;;;19.54;50.07;97100.47;5049566;28;8933;-68
2022/04/01 09:10:55;;;;;;;;;7.00;7.00;;;;;18.95;50.48;97104.88;5009457;28;8876;-68
2022/04/01 09:13:26;;;;;;;;;6.80;6.20;;;;;18.66;51.46;97113.09;5035809;28;8938;-69
2022/04/01 09:15:55;;;;;;;;;8.60;8.20;;;;;18.50;52.29;97104.59;5045687;28;8906;-72
2022/04/01 09:18:38;;;;;;;;;10.60;10.60;;;;;18.27;54.22;97088.59;5030264;28;9554;-69
2022/04/01 09:21:08;;;;;;;;;8.00;8.00;;;;;18.16;54.35;97085.88;5029368;28;8876;-69
2022/04/01 09:23:39;;;;;;;;;9.40;8.40;;;;;18.16;53.21;97103.53;5030239;28;8855;-69
2022/04/01 09:26:08;;;;;;;;;6.40;5.60;;;;;17.77;53.28;97111.44;5041050;28;8844;-68
2022/04/01 09:28:40;;;;;;;;;9.20;8.40;;;;;17.61;53.67;97119.53;5042736;28;8871;-71
2022/04/01 09:31:10;;;;;;;;;6.00;5.40;;;;;17.67;53.26;97118.28;5029848;28;8891;-68
2022/04/01 09:34:00;;;;;;;;;6.60;6.60;;;;;17.54;53.03;97120.91;5025778;28;8868;-75
2022/04/01 09:36:33;;;;;;;;;5.00;4.00;;;;;17.45;53.40;97137.38;5033996;28;8982;-77
2022/04/01 09:39:07;;;;;;;;;5.80;5.80;;;;;17.48;53.85;97135.34;5019190;28;8842;-76
2022/04/01 09:41:37;;;;;;;;;6.80;5.20;;;;;17.66;53.79;97142.97;5005576;28;8884;-76
2022/04/01 09:44:28;;;;;;;;;8.40;8.40;;;;;17.38;55.13;97136.91;5023833;28;8863;-74
2022/04/01 09:46:59;;;;;;;;;6.40;6.00;;;;;17.48;55.47;97151.16;4980182;28;8870;-73
2022/04/01 09:49:33;;;;;;;;;7.00;4.40;;;;;17.47;54.67;97157.38;4994142;28;8849;-71
2022/04/01 09:52:06;;;;;;;;;5.00;3.80;;;;;17.45;54.54;97166.34;5025981;28;8935;-72
2022/04/01 09:54:44;;;;;;;;;6.20;6.00;;;;;17.34;54.17;97167.88;5027018;28;8828;-74
2022/04/01 09:57:13;;;;;;;;;5.20;5.20;;;;;17.31;53.87;97170.72;5025525;28;8872;-75
2022/04/01 09:59:43;;;;;;;;;5.60;5.60;;;;;17.50;53.09;97174.78;5008940;28;8860;-74
2022/04/01 10:02:12;;;;;;;;;7.00;6.40;;;;;17.67;52.38;97176.28;5010660;28;9021;-75
2022/04/01 10:04:41;;;;;;;;;7.00;7.00;;;;;17.84;53.27;97181.25;5027556;28;8833;-73
2022/04/01 10:07:10;;;;;;;;;5.20;4.80;;;;;18.25;51.89;97180.22;5027462;28;8856;-76
2022/04/01 10:09:43;;;;;;;;;11.80;10.20;;;;;18.60;51.80;97187.47;4994592;28;9579;-73
2022/04/01 10:12:34;;;;;;;;;4.40;4.40;;;;;18.73;49.42;97189.22;5009091;28;9009;-72
2022/04/01 10:15:06;;;;;;;;;7.40;7.40;;;;;18.94;50.02;97186.84;5021745;28;8932;-73
2022/04/01 10:17:56;;;;;;;;;4.00;4.00;;;;;19.14;48.46;97175.66;5041195;28;8837;-74
2022/04/01 10:20:31;;;;;;;;;4.00;4.00;;;;;19.36;48.55;97193.44;5049257;28;8956;-70
2022/04/01 10:23:03;;;;;;;;;3.40;3.40;;;;;19.57;47.85;97184.88;5049048;28;8946;-73
2022/04/01 10:25:47;;;;;;;;;5.00;5.00;;;;;19.84;47.36;97189.88;5048340;28;8853;-70
2022/04/01 10:28:18;;;;;;;;;8.60;8.60;;;;;20.09;46.79;97196.78;5046385;28;9626;-72
2022/04/01 10:30:55;;;;;;;;;13.40;9.80;;;;;20.34;47.04;97208.09;5049218;28;8887;-71
2022/04/01 10:33:26;;;;;;;;;5.20;5.20;;;;;20.53;46.11;97205.72;5043385;28;8878;-72
2022/04/01 10:35:56;;;;;;;;;8.60;6.60;;;;;20.71;45.42;97198.13;5029715;28;8838;-73
2022/04/01 10:38:29;;;;;;;;;8.60;8.60;;;;;20.92;45.09;97202.69;5049299;28;8865;-72
2022/04/01 10:41:12;;;;;;;;;12.40;11.20;;;;;21.16;44.86;97199.88;5043391;28;8932;-72
2022/04/01 10:43:43;;;;;;;;;9.00;7.80;;;;;21.24;44.40;97197.41;5035907;28;8986;-73
2022/04/01 10:46:14;;;;;;;;;7.20;6.00;;;;;21.37;44.12;97198.09;5028972;28;8851;-72
2022/04/01 10:52:05;;;;;;;;;8.00;7.80;;;;;20.11;45.95;97205.44;5028784;28;8868;-75
2022/04/01 10:54:43;;;;;;;;;8.80;8.00;;;;;19.86;46.51;97204.66;5034147;28;9635;-74
2022/04/01 10:57:26;;;;;;;;;6.40;5.00;;;;;19.58;46.82;97203.22;5042565;28;8847;-74
2022/04/01 10:59:59;;;;;;;;;5.00;5.00;;;;;18.81;48.67;97214.16;5027344;28;8856;-74
2022/04/01 11:02:28;;;;;;;;;3.20;3.20;;;;;18.30;49.98;97212.41;5045842;28;8864;-73
2022/04/01 11:05:00;;;;;;;;;3.20;3.20;;;;;18.03;51.41;97212.50;5014056;28;8942;-73
2022/04/01 11:07:36;;;;;;;;;5.20;4.00;;;;;17.77;52.09;97216.03;5037195;28;8875;-71
2022/04/01 11:10:08;;;;;;;;;5.00;5.00;;;;;17.79;52.17;97207.09;5044690;28;8898;-72
2022/04/01 11:12:42;;;;;;;;;4.80;4.80;;;;;17.95;51.66;97198.16;5048462;28;8895;-72
2022/04/01 11:15:20;;;;;;;;;4.00;4.00;;;;;18.02;51.79;97187.09;5027703;28;9633;-75
2022/04/01 11:18:11;;;;;;;;;6.60;6.60;;;;;18.41;52.83;97176.50;5028034;28;8975;-72
2022/04/01 11:20:42;;;;;;;;;4.40;3.20;;;;;18.39;50.96;97174.00;5028377;28;9625;-73
2022/04/01 11:23:12;;;;;;;;;3.60;2.80;;;;;18.28;50.56;97180.00;5062614;28;8875;-74
2022/04/01 11:25:58;;;;;;;;;4.40;3.40;;;;;18.24;50.11;97188.22;5028213;28;8855;-72
2022/04/01 11:28:30;;;;;;;;;2.80;2.80;;;;;18.04;50.88;97190.47;5030936;28;8851;-74
2022/04/01 11:31:13;;;;;;;;;3.20;3.20;;;;;17.98;50.94;97187.41;5047414;28;8844;-73
2022/04/01 11:33:57;;;;;;;;;3.00;3.00;;;;;17.42;50.05;97185.81;5041256;28;8971;-76
2022/04/01 11:36:27;;;;;;;;;1.20;1.20;;;;;16.80;50.89;97185.47;5048461;28;8857;-73
2022/04/01 11:38:56;;;;;;;;;2.00;2.00;;;;;16.36;54.14;97193.41;5042128;28;8944;-74
2022/04/01 11:41:29;;;;;;;;;2.40;2.40;;;;;16.20;54.48;97190.06;5048556;28;8841;-75
2022/04/01 11:43:59;;;;;;;;;2.60;2.60;;;;;16.09;55.23;97200.38;5045244;28;8877;-73
2022/04/01 11:46:28;;;;;;;;;6.80;5.80;;;;;16.18;56.27;97203.28;5029177;28;8884;-73
2022/04/01 11:48:58;;;;;;;;;6.80;6.80;;;;;16.46;56.14;97209.47;5033443;28;8890;-74
2022/04/01 11:51:27;;;;;;;;;5.40;4.80;;;;;16.72;56.26;97226.25;5027443;28;8974;-73
2022/04/01 11:53:56;;;;;;;;;7.00;5.20;;;;;16.99;57.50;97227.28;5027387;28;8856;-72
2022/04/01 11:56:27;;;;;;;;;5.00;5.00;;;;;17.23;55.48;97236.22;5028333;28;8929;-75
2022/04/01 11:59:00;;;;;;;;;8.60;7.20;;;;;17.45;55.03;97246.22;5043468;28;8883;-71
2022/04/01 12:01:31;;;;;;;;;6.80;6.80;;;;;17.66;55.85;97261.56;5047524;28;8907;-72
2022/04/01 12:04:08;;;;;;;;;8.60;6.80;;;;;17.77;57.22;97277.53;5027076;28;9628;-74
2022/04/01 12:09:29;;;;;;;;;4.40;4.40;;;;;17.19;60.49;97315.56;5046638;28;9664;-72
2022/04/01 12:12:01;;;;;;;;;0.60;0.60;;;;;17.10;61.30;97322.25;5044000;28;8924;-72
2022/04/01 12:14:33;;;;;;;;;4.20;4.20;;;;;17.05;61.49;97340.97;5040335;28;8849;-74
2022/04/01 12:17:06;;;;;;;;;3.80;3.80;;;;;16.95;60.83;97345.09;5038477;28;8874;-72
2022/04/01 12:19:35;;;;;;;;;5.00;5.00;;;;;16.49;62.47;97343.47;5040789;28;8853;-72